sensor_id;sensor_type;location;lat;lon;timestamp;P1;durP1;ratioP1;P2;durP2;ratioP2
8889;SDS011;4481;43.406;24.454;2022-10-15T00:00:35;8.63;;;4.10;;
8889;SDS011;4481;43.406;24.454;2022-10-15T00:03:01;7.73;;;4.50;;
8889;SDS011;4481;43.406;24.454;2022-10-15T00:05:27;8.13;;;3.87;;
8889;SDS011;4481;43.406;24.454;2022-10-15T00:07:54;7.40;;;4.57;;
8889;SDS011;4481;43.406;24.454;2022-10-15T00:10:21;8.40;;;4.17;;
8889;SDS011;4481;43.406;24.454;2022-10-15T00:12:47;8.10;;;4.30;;
8889;SDS011;4481;43.406;24.454;2022-10-15T00:15:14;4.90;;;3.97;;
8889;SDS011;4481;43.406;24.454;2022-10-15T00:17:40;7.33;;;4.67;;
8889;SDS011;4481;43.406;24.454;2022-10-15T00:20:07;7.40;;;4.13;;
8889;SDS011;4481;43.406;24.454;2022-10-15T00:22:35;10.10;;;4.60;;
8889;SDS011;4481;43.406;24.454;2022-10-15T00:25:01;7.23;;;4.23;;
8889;SDS011;4481;43.406;24.454;2022-10-15T00:27:29;5.53;;;4.07;;
8889;SDS011;4481;43.406;24.454;2022-10-15T00:29:55;9.17;;;4.00;;
8889;SDS011;4481;43.406;24.454;2022-10-15T00:32:21;8.47;;;4.50;;
8889;SDS011;4481;43.406;24.454;2022-10-15T00:34:47;6.07;;;4.53;;
8889;SDS011;4481;43.406;24.454;2022-10-15T00:37:13;4.97;;;3.93;;
8889;SDS011;4481;43.406;24.454;2022-10-15T00:39:41;4.83;;;4.00;;
8889;SDS011;4481;43.406;24.454;2022-10-15T00:42:08;5.63;;;3.90;;
8889;SDS011;4481;43.406;24.454;2022-10-15T00:47:29;4.30;;;3.90;;
8889;SDS011;4481;43.406;24.454;2022-10-15T00:50:03;5.67;;;4.00;;
8889;SDS011;4481;43.406;24.454;2022-10-15T00:52:33;7.63;;;4.17;;
8889;SDS011;4481;43.406;24.454;2022-10-15T00:55:07;4.87;;;3.90;;
8889;SDS011;4481;43.406;24.454;2022-10-15T00:57:37;5.37;;;4.03;;
8889;SDS011;4481;43.406;24.454;2022-10-15T01:00:06;5.03;;;3.30;;
8889;SDS011;4481;43.406;24.454;2022-10-15T01:02:34;6.43;;;4.07;;
8889;SDS011;4481;43.406;24.454;2022-10-15T01:05:01;5.27;;;4.10;;
8889;SDS011;4481;43.406;24.454;2022-10-15T01:07:27;6.43;;;3.70;;
8889;SDS011;4481;43.406;24.454;2022-10-15T01:09:54;7.90;;;3.90;;
8889;SDS011;4481;43.406;24.454;2022-10-15T01:12:22;6.70;;;4.60;;
8889;SDS011;4481;43.406;24.454;2022-10-15T01:14:59;5.40;;;3.90;;
8889;SDS011;4481;43.406;24.454;2022-10-15T01:17:33;9.70;;;3.83;;
8889;SDS011;4481;43.406;24.454;2022-10-15T01:26:24;4.53;;;3.20;;
8889;SDS011;4481;43.406;24.454;2022-10-15T01:29:18;9.30;;;3.13;;
8889;SDS011;4481;43.406;24.454;2022-10-15T01:32:00;5.47;;;3.37;;
8889;SDS011;4481;43.406;24.454;2022-10-15T01:34:33;3.73;;;3.40;;
8889;SDS011;4481;43.406;24.454;2022-10-15T01:37:06;3.63;;;3.10;;
8889;SDS011;4481;43.406;24.454;2022-10-15T01:39:37;6.67;;;3.30;;
8889;SDS011;4481;43.406;24.454;2022-10-15T01:42:06;8.93;;;3.77;;
8889;SDS011;4481;43.406;24.454;2022-10-15T01:44:39;6.83;;;3.53;;
8889;SDS011;4481;43.406;24.454;2022-10-15T01:47:12;7.83;;;3.40;;
8889;SDS011;4481;43.406;24.454;2022-10-15T01:49:42;6.33;;;3.83;;
8889;SDS011;4481;43.406;24.454;2022-10-15T01:52:12;6.87;;;3.90;;
8889;SDS011;4481;43.406;24.454;2022-10-15T01:54:42;6.43;;;3.63;;
8889;SDS011;4481;43.406;24.454;2022-10-15T01:57:11;4.87;;;3.27;;
8889;SDS011;4481;43.406;24.454;2022-10-15T01:59:39;6.63;;;3.93;;
8889;SDS011;4481;43.406;24.454;2022-10-15T02:02:07;5.80;;;4.10;;
8889;SDS011;4481;43.406;24.454;2022-10-15T02:04:34;5.83;;;4.23;;
8889;SDS011;4481;43.406;24.454;2022-10-15T02:07:01;5.77;;;4.93;;
8889;SDS011;4481;43.406;24.454;2022-10-15T02:09:31;12.17;;;5.13;;
8889;SDS011;4481;43.406;24.454;2022-10-15T02:12:08;5.17;;;4.07;;
8889;SDS011;4481;43.406;24.454;2022-10-15T02:14:43;7.03;;;3.73;;
8889;SDS011;4481;43.406;24.454;2022-10-15T02:17:18;5.73;;;3.27;;
8889;SDS011;4481;43.406;24.454;2022-10-15T02:19:55;3.63;;;3.10;;
8889;SDS011;4481;43.406;24.454;2022-10-15T02:22:26;5.10;;;3.40;;
8889;SDS011;4481;43.406;24.454;2022-10-15T02:24:57;5.77;;;3.70;;
8889;SDS011;4481;43.406;24.454;2022-10-15T02:27:29;5.87;;;4.03;;
8889;SDS011;4481;43.406;24.454;2022-10-15T02:29:57;6.43;;;3.90;;
8889;SDS011;4481;43.406;24.454;2022-10-15T02:32:27;5.47;;;3.93;;
8889;SDS011;4481;43.406;24.454;2022-10-15T02:34:56;5.80;;;3.50;;
8889;SDS011;4481;43.406;24.454;2022-10-15T02:37:24;15.40;;;4.77;;
8889;SDS011;4481;43.406;24.454;2022-10-15T02:39:53;8.13;;;3.90;;
8889;SDS011;4481;43.406;24.454;2022-10-15T02:42:20;6.70;;;4.50;;
8889;SDS011;4481;43.406;24.454;2022-10-15T02:44:46;10.37;;;4.77;;
8889;SDS011;4481;43.406;24.454;2022-10-15T02:47:13;6.93;;;3.90;;
8889;SDS011;4481;43.406;24.454;2022-10-15T02:49:39;6.97;;;4.23;;
8889;SDS011;4481;43.406;24.454;2022-10-15T02:52:06;6.50;;;3.50;;
8889;SDS011;4481;43.406;24.454;2022-10-15T02:54:32;5.90;;;3.40;;
8889;SDS011;4481;43.406;24.454;2022-10-15T02:56:58;5.27;;;3.50;;
8889;SDS011;4481;43.406;24.454;2022-10-15T02:59:24;4.90;;;3.63;;
8889;SDS011;4481;43.406;24.454;2022-10-15T03:01:50;8.73;;;4.00;;
8889;SDS011;4481;43.406;24.454;2022-10-15T03:04:16;6.73;;;3.50;;
8889;SDS011;4481;43.406;24.454;2022-10-15T03:06:43;4.40;;;3.80;;
8889;SDS011;4481;43.406;24.454;2022-10-15T03:09:09;4.83;;;4.20;;
8889;SDS011;4481;43.406;24.454;2022-10-15T03:11:36;6.23;;;4.43;;
8889;SDS011;4481;43.406;24.454;2022-10-15T03:14:02;6.63;;;5.13;;
8889;SDS011;4481;43.406;24.454;2022-10-15T03:16:28;6.20;;;5.27;;
8889;SDS011;4481;43.406;24.454;2022-10-15T03:18:54;10.70;;;4.77;;
8889;SDS011;4481;43.406;24.454;2022-10-15T03:21:21;10.27;;;5.27;;
8889;SDS011;4481;43.406;24.454;2022-10-15T03:23:47;5.13;;;4.53;;
8889;SDS011;4481;43.406;24.454;2022-10-15T03:26:13;7.20;;;5.13;;
8889;SDS011;4481;43.406;24.454;2022-10-15T03:28:40;7.77;;;5.70;;
8889;SDS011;4481;43.406;24.454;2022-10-15T03:31:06;9.40;;;6.27;;
8889;SDS011;4481;43.406;24.454;2022-10-15T03:33:32;8.30;;;5.90;;
8889;SDS011;4481;43.406;24.454;2022-10-15T03:35:58;10.13;;;6.30;;
8889;SDS011;4481;43.406;24.454;2022-10-15T03:38:24;12.77;;;6.47;;
8889;SDS011;4481;43.406;24.454;2022-10-15T03:40:51;7.23;;;5.40;;
8889;SDS011;4481;43.406;24.454;2022-10-15T03:43:17;6.83;;;5.07;;
8889;SDS011;4481;43.406;24.454;2022-10-15T03:45:43;8.23;;;5.70;;
8889;SDS011;4481;43.406;24.454;2022-10-15T03:48:09;5.43;;;4.70;;
8889;SDS011;4481;43.406;24.454;2022-10-15T03:50:36;13.77;;;4.83;;
8889;SDS011;4481;43.406;24.454;2022-10-15T03:53:02;7.63;;;4.47;;
8889;SDS011;4481;43.406;24.454;2022-10-15T03:55:29;11.90;;;4.20;;
8889;SDS011;4481;43.406;24.454;2022-10-15T03:57:55;8.07;;;4.97;;
8889;SDS011;4481;43.406;24.454;2022-10-15T04:00:22;7.80;;;5.97;;
8889;SDS011;4481;43.406;24.454;2022-10-15T04:02:48;7.80;;;6.23;;
8889;SDS011;4481;43.406;24.454;2022-10-15T04:05:14;6.97;;;6.27;;
8889;SDS011;4481;43.406;24.454;2022-10-15T04:07:40;8.80;;;6.50;;
8889;SDS011;4481;43.406;24.454;2022-10-15T04:10:07;13.20;;;6.50;;
8889;SDS011;4481;43.406;24.454;2022-10-15T04:12:33;8.93;;;5.70;;
8889;SDS011;4481;43.406;24.454;2022-10-15T04:14:59;10.20;;;5.53;;
8889;SDS011;4481;43.406;24.454;2022-10-15T04:17:26;7.07;;;5.10;;
8889;SDS011;4481;43.406;24.454;2022-10-15T04:19:52;6.57;;;4.43;;
8889;SDS011;4481;43.406;24.454;2022-10-15T04:22:18;6.23;;;4.67;;
8889;SDS011;4481;43.406;24.454;2022-10-15T04:24:45;10.00;;;4.43;;
8889;SDS011;4481;43.406;24.454;2022-10-15T04:27:11;6.73;;;4.50;;
8889;SDS011;4481;43.406;24.454;2022-10-15T04:29:37;9.07;;;4.43;;
8889;SDS011;4481;43.406;24.454;2022-10-15T04:32:04;7.50;;;4.30;;
8889;SDS011;4481;43.406;24.454;2022-10-15T04:34:30;10.73;;;4.43;;
8889;SDS011;4481;43.406;24.454;2022-10-15T04:36:56;7.83;;;4.47;;
8889;SDS011;4481;43.406;24.454;2022-10-15T04:39:23;4.63;;;4.13;;
8889;SDS011;4481;43.406;24.454;2022-10-15T04:41:49;8.13;;;4.63;;
8889;SDS011;4481;43.406;24.454;2022-10-15T04:44:15;6.40;;;4.50;;
8889;SDS011;4481;43.406;24.454;2022-10-15T04:46:42;5.70;;;4.30;;
8889;SDS011;4481;43.406;24.454;2022-10-15T04:49:08;9.57;;;5.07;;
8889;SDS011;4481;43.406;24.454;2022-10-15T04:51:34;10.50;;;4.37;;
8889;SDS011;4481;43.406;24.454;2022-10-15T04:54:01;6.23;;;4.70;;
8889;SDS011;4481;43.406;24.454;2022-10-15T04:56:28;5.93;;;4.37;;
8889;SDS011;4481;43.406;24.454;2022-10-15T04:58:54;7.63;;;5.80;;
8889;SDS011;4481;43.406;24.454;2022-10-15T05:01:20;8.10;;;5.20;;
8889;SDS011;4481;43.406;24.454;2022-10-15T05:03:47;9.33;;;6.03;;
8889;SDS011;4481;43.406;24.454;2022-10-15T05:06:14;10.63;;;7.47;;
8889;SDS011;4481;43.406;24.454;2022-10-15T05:08:43;12.30;;;8.10;;
8889;SDS011;4481;43.406;24.454;2022-10-15T05:11:11;10.73;;;8.00;;
8889;SDS011;4481;43.406;24.454;2022-10-15T05:13:38;15.93;;;8.27;;
8889;SDS011;4481;43.406;24.454;2022-10-15T05:16:09;10.67;;;7.90;;
8889;SDS011;4481;43.406;24.454;2022-10-15T05:18:36;15.13;;;9.80;;
8889;SDS011;4481;43.406;24.454;2022-10-15T05:21:03;13.30;;;8.50;;
8889;SDS011;4481;43.406;24.454;2022-10-15T05:23:30;10.57;;;8.47;;
8889;SDS011;4481;43.406;24.454;2022-10-15T05:25:58;10.47;;;8.53;;
8889;SDS011;4481;43.406;24.454;2022-10-15T05:28:24;11.00;;;7.30;;
8889;SDS011;4481;43.406;24.454;2022-10-15T05:30:50;13.90;;;7.30;;
8889;SDS011;4481;43.406;24.454;2022-10-15T05:33:17;10.50;;;6.80;;
8889;SDS011;4481;43.406;24.454;2022-10-15T05:35:43;13.20;;;7.17;;
8889;SDS011;4481;43.406;24.454;2022-10-15T05:38:09;9.97;;;8.20;;
8889;SDS011;4481;43.406;24.454;2022-10-15T05:40:35;9.60;;;7.17;;
8889;SDS011;4481;43.406;24.454;2022-10-15T05:43:02;9.93;;;7.87;;
8889;SDS011;4481;43.406;24.454;2022-10-15T05:45:28;12.93;;;7.33;;
8889;SDS011;4481;43.406;24.454;2022-10-15T05:47:54;10.40;;;7.13;;
8889;SDS011;4481;43.406;24.454;2022-10-15T05:50:20;13.70;;;8.07;;
8889;SDS011;4481;43.406;24.454;2022-10-15T05:52:46;12.70;;;6.63;;
8889;SDS011;4481;43.406;24.454;2022-10-15T05:55:13;7.23;;;5.90;;
8889;SDS011;4481;43.406;24.454;2022-10-15T05:57:39;9.37;;;5.77;;
8889;SDS011;4481;43.406;24.454;2022-10-15T06:00:06;7.17;;;5.67;;
8889;SDS011;4481;43.406;24.454;2022-10-15T06:02:33;6.10;;;4.80;;
8889;SDS011;4481;43.406;24.454;2022-10-15T06:04:59;7.17;;;5.13;;
8889;SDS011;4481;43.406;24.454;2022-10-15T06:07:26;11.67;;;5.70;;
8889;SDS011;4481;43.406;24.454;2022-10-15T06:09:52;10.00;;;5.87;;
8889;SDS011;4481;43.406;24.454;2022-10-15T06:12:18;9.17;;;5.37;;
8889;SDS011;4481;43.406;24.454;2022-10-15T06:14:44;13.17;;;6.23;;
8889;SDS011;4481;43.406;24.454;2022-10-15T06:17:11;6.60;;;5.27;;
8889;SDS011;4481;43.406;24.454;2022-10-15T06:19:37;11.70;;;5.40;;
8889;SDS011;4481;43.406;24.454;2022-10-15T06:22:03;7.90;;;4.60;;
8889;SDS011;4481;43.406;24.454;2022-10-15T06:24:29;5.53;;;3.93;;
8889;SDS011;4481;43.406;24.454;2022-10-15T06:26:56;6.20;;;4.57;;
8889;SDS011;4481;43.406;24.454;2022-10-15T06:29:22;4.93;;;4.07;;
8889;SDS011;4481;43.406;24.454;2022-10-15T06:31:49;5.93;;;3.80;;
8889;SDS011;4481;43.406;24.454;2022-10-15T06:34:15;10.63;;;4.50;;
8889;SDS011;4481;43.406;24.454;2022-10-15T06:36:42;7.80;;;4.13;;
8889;SDS011;4481;43.406;24.454;2022-10-15T06:39:08;5.33;;;3.70;;
8889;SDS011;4481;43.406;24.454;2022-10-15T06:41:35;4.57;;;4.00;;
8889;SDS011;4481;43.406;24.454;2022-10-15T06:44:01;10.73;;;3.93;;
8889;SDS011;4481;43.406;24.454;2022-10-15T06:46:27;7.47;;;3.13;;
8889;SDS011;4481;43.406;24.454;2022-10-15T06:48:53;5.70;;;3.20;;
8889;SDS011;4481;43.406;24.454;2022-10-15T06:51:20;4.30;;;2.80;;
8889;SDS011;4481;43.406;24.454;2022-10-15T06:53:46;3.40;;;2.73;;
8889;SDS011;4481;43.406;24.454;2022-10-15T06:56:12;5.40;;;3.07;;
8889;SDS011;4481;43.406;24.454;2022-10-15T06:58:40;4.13;;;2.80;;
8889;SDS011;4481;43.406;24.454;2022-10-15T07:01:06;4.90;;;2.70;;
8889;SDS011;4481;43.406;24.454;2022-10-15T07:03:33;6.10;;;2.73;;
8889;SDS011;4481;43.406;24.454;2022-10-15T07:06:00;9.13;;;3.40;;
8889;SDS011;4481;43.406;24.454;2022-10-15T07:08:27;4.37;;;2.67;;
8889;SDS011;4481;43.406;24.454;2022-10-15T07:10:54;5.87;;;2.97;;
8889;SDS011;4481;43.406;24.454;2022-10-15T07:13:20;3.53;;;2.77;;
8889;SDS011;4481;43.406;24.454;2022-10-15T07:15:46;7.17;;;2.70;;
8889;SDS011;4481;43.406;24.454;2022-10-15T07:18:13;6.60;;;2.80;;
8889;SDS011;4481;43.406;24.454;2022-10-15T07:20:39;6.07;;;2.93;;
8889;SDS011;4481;43.406;24.454;2022-10-15T07:23:05;4.97;;;2.90;;
8889;SDS011;4481;43.406;24.454;2022-10-15T07:25:32;6.53;;;2.60;;
8889;SDS011;4481;43.406;24.454;2022-10-15T07:27:58;3.73;;;2.50;;
8889;SDS011;4481;43.406;24.454;2022-10-15T07:30:24;2.40;;;2.20;;
8889;SDS011;4481;43.406;24.454;2022-10-15T07:32:51;2.83;;;2.10;;
8889;SDS011;4481;43.406;24.454;2022-10-15T07:35:18;6.20;;;2.37;;
8889;SDS011;4481;43.406;24.454;2022-10-15T07:37:44;4.47;;;2.20;;
8889;SDS011;4481;43.406;24.454;2022-10-15T07:40:11;4.07;;;2.70;;
8889;SDS011;4481;43.406;24.454;2022-10-15T07:42:38;3.77;;;2.10;;
8889;SDS011;4481;43.406;24.454;2022-10-15T07:45:05;6.83;;;2.00;;
8889;SDS011;4481;43.406;24.454;2022-10-15T07:47:31;5.00;;;2.40;;
8889;SDS011;4481;43.406;24.454;2022-10-15T07:49:58;5.10;;;2.67;;
8889;SDS011;4481;43.406;24.454;2022-10-15T07:52:24;4.03;;;2.43;;
8889;SDS011;4481;43.406;24.454;2022-10-15T07:54:50;4.07;;;2.50;;
8889;SDS011;4481;43.406;24.454;2022-10-15T07:57:16;4.73;;;2.50;;
8889;SDS011;4481;43.406;24.454;2022-10-15T07:59:43;4.33;;;2.23;;
8889;SDS011;4481;43.406;24.454;2022-10-15T08:02:10;4.27;;;2.40;;
8889;SDS011;4481;43.406;24.454;2022-10-15T08:04:40;3.20;;;2.60;;
8889;SDS011;4481;43.406;24.454;2022-10-15T08:07:06;2.67;;;2.03;;
8889;SDS011;4481;43.406;24.454;2022-10-15T08:09:32;4.70;;;2.53;;
8889;SDS011;4481;43.406;24.454;2022-10-15T08:11:58;2.90;;;2.53;;
8889;SDS011;4481;43.406;24.454;2022-10-15T08:14:25;3.33;;;2.57;;
8889;SDS011;4481;43.406;24.454;2022-10-15T08:16:51;5.37;;;2.47;;
8889;SDS011;4481;43.406;24.454;2022-10-15T08:19:18;6.23;;;2.17;;
8889;SDS011;4481;43.406;24.454;2022-10-15T08:21:44;3.83;;;2.47;;
8889;SDS011;4481;43.406;24.454;2022-10-15T08:24:11;5.10;;;2.40;;
8889;SDS011;4481;43.406;24.454;2022-10-15T08:26:37;4.23;;;2.50;;
8889;SDS011;4481;43.406;24.454;2022-10-15T08:29:03;2.47;;;2.00;;
8889;SDS011;4481;43.406;24.454;2022-10-15T08:31:29;2.43;;;2.20;;
8889;SDS011;4481;43.406;24.454;2022-10-15T08:33:58;3.07;;;1.97;;
8889;SDS011;4481;43.406;24.454;2022-10-15T08:36:25;2.40;;;2.00;;
8889;SDS011;4481;43.406;24.454;2022-10-15T08:38:51;5.17;;;2.63;;
8889;SDS011;4481;43.406;24.454;2022-10-15T08:41:18;3.60;;;2.50;;
8889;SDS011;4481;43.406;24.454;2022-10-15T08:43:50;4.30;;;2.27;;
8889;SDS011;4481;43.406;24.454;2022-10-15T08:46:17;3.37;;;2.70;;
8889;SDS011;4481;43.406;24.454;2022-10-15T08:48:48;2.53;;;2.17;;
8889;SDS011;4481;43.406;24.454;2022-10-15T08:51:18;3.77;;;2.33;;
8889;SDS011;4481;43.406;24.454;2022-10-15T08:53:47;4.00;;;2.53;;
8889;SDS011;4481;43.406;24.454;2022-10-15T08:56:18;3.53;;;2.57;;
8889;SDS011;4481;43.406;24.454;2022-10-15T08:58:50;5.23;;;2.63;;
8889;SDS011;4481;43.406;24.454;2022-10-15T09:01:24;3.27;;;2.40;;
8889;SDS011;4481;43.406;24.454;2022-10-15T09:04:00;5.40;;;2.63;;
8889;SDS011;4481;43.406;24.454;2022-10-15T09:06:33;4.47;;;2.70;;
8889;SDS011;4481;43.406;24.454;2022-10-15T09:09:04;6.37;;;2.40;;
8889;SDS011;4481;43.406;24.454;2022-10-15T09:11:36;4.40;;;2.37;;
8889;SDS011;4481;43.406;24.454;2022-10-15T09:14:13;4.80;;;2.50;;
8889;SDS011;4481;43.406;24.454;2022-10-15T09:16:43;4.03;;;2.30;;
8889;SDS011;4481;43.406;24.454;2022-10-15T09:19:13;3.00;;;2.23;;
8889;SDS011;4481;43.406;24.454;2022-10-15T09:21:43;2.73;;;2.00;;
8889;SDS011;4481;43.406;24.454;2022-10-15T09:24:12;2.93;;;2.00;;
8889;SDS011;4481;43.406;24.454;2022-10-15T09:26:46;4.57;;;2.00;;
8889;SDS011;4481;43.406;24.454;2022-10-15T09:29:20;3.37;;;2.10;;
8889;SDS011;4481;43.406;24.454;2022-10-15T09:31:54;2.73;;;2.00;;
8889;SDS011;4481;43.406;24.454;2022-10-15T09:34:28;5.10;;;2.47;;
8889;SDS011;4481;43.406;24.454;2022-10-15T09:37:04;4.23;;;2.40;;
8889;SDS011;4481;43.406;24.454;2022-10-15T09:39:39;3.30;;;2.10;;
8889;SDS011;4481;43.406;24.454;2022-10-15T09:42:18;3.50;;;2.03;;
8889;SDS011;4481;43.406;24.454;2022-10-15T09:44:54;4.97;;;2.27;;
8889;SDS011;4481;43.406;24.454;2022-10-15T09:47:24;3.77;;;2.43;;
8889;SDS011;4481;43.406;24.454;2022-10-15T09:49:52;3.73;;;2.77;;
8889;SDS011;4481;43.406;24.454;2022-10-15T09:52:22;4.57;;;2.53;;
8889;SDS011;4481;43.406;24.454;2022-10-15T09:54:57;4.40;;;2.80;;
8889;SDS011;4481;43.406;24.454;2022-10-15T09:57:31;4.43;;;2.73;;
8889;SDS011;4481;43.406;24.454;2022-10-15T10:00:00;3.23;;;2.80;;
8889;SDS011;4481;43.406;24.454;2022-10-15T10:02:28;3.77;;;2.73;;
8889;SDS011;4481;43.406;24.454;2022-10-15T10:04:55;2.87;;;2.57;;
8889;SDS011;4481;43.406;24.454;2022-10-15T10:07:29;5.30;;;3.10;;
8889;SDS011;4481;43.406;24.454;2022-10-15T10:09:59;4.30;;;2.90;;
8889;SDS011;4481;43.406;24.454;2022-10-15T10:12:28;3.50;;;2.60;;
8889;SDS011;4481;43.406;24.454;2022-10-15T10:14:57;8.27;;;2.77;;
8889;SDS011;4481;43.406;24.454;2022-10-15T10:17:26;4.23;;;2.97;;
8889;SDS011;4481;43.406;24.454;2022-10-15T10:20:09;6.17;;;3.00;;
8889;SDS011;4481;43.406;24.454;2022-10-15T10:22:43;3.10;;;2.80;;
8889;SDS011;4481;43.406;24.454;2022-10-15T10:25:28;4.60;;;3.13;;
8889;SDS011;4481;43.406;24.454;2022-10-15T10:28:03;4.40;;;2.77;;
8889;SDS011;4481;43.406;24.454;2022-10-15T10:30:41;3.27;;;2.50;;
8889;SDS011;4481;43.406;24.454;2022-10-15T10:33:14;3.57;;;2.93;;
8889;SDS011;4481;43.406;24.454;2022-10-15T10:35:48;5.50;;;2.77;;
8889;SDS011;4481;43.406;24.454;2022-10-15T10:38:19;3.30;;;2.87;;
8889;SDS011;4481;43.406;24.454;2022-10-15T10:40:49;5.33;;;2.93;;
8889;SDS011;4481;43.406;24.454;2022-10-15T10:43:18;3.50;;;2.57;;
8889;SDS011;4481;43.406;24.454;2022-10-15T10:45:51;3.17;;;2.70;;
8889;SDS011;4481;43.406;24.454;2022-10-15T10:48:22;21.53;;;11.83;;
8889;SDS011;4481;43.406;24.454;2022-10-15T10:51:00;18.27;;;9.67;;
8889;SDS011;4481;43.406;24.454;2022-10-15T10:53:28;11.80;;;7.30;;
8889;SDS011;4481;43.406;24.454;2022-10-15T10:55:54;13.50;;;6.33;;
8889;SDS011;4481;43.406;24.454;2022-10-15T10:58:22;6.40;;;3.20;;
8889;SDS011;4481;43.406;24.454;2022-10-15T11:00:50;3.80;;;3.20;;
8889;SDS011;4481;43.406;24.454;2022-10-15T11:03:19;5.13;;;4.03;;
8889;SDS011;4481;43.406;24.454;2022-10-15T11:05:56;5.50;;;3.37;;
8889;SDS011;4481;43.406;24.454;2022-10-15T11:08:30;4.87;;;3.03;;
8889;SDS011;4481;43.406;24.454;2022-10-15T11:11:06;3.00;;;2.70;;
8889;SDS011;4481;43.406;24.454;2022-10-15T11:13:44;3.87;;;3.17;;
8889;SDS011;4481;43.406;24.454;2022-10-15T11:16:16;6.53;;;3.03;;
8889;SDS011;4481;43.406;24.454;2022-10-15T11:18:53;5.37;;;3.47;;
8889;SDS011;4481;43.406;24.454;2022-10-15T11:21:32;4.67;;;2.90;;
8889;SDS011;4481;43.406;24.454;2022-10-15T11:24:12;6.50;;;3.43;;
8889;SDS011;4481;43.406;24.454;2022-10-15T11:26:51;7.27;;;3.53;;
8889;SDS011;4481;43.406;24.454;2022-10-15T11:29:29;6.17;;;3.10;;
8889;SDS011;4481;43.406;24.454;2022-10-15T11:32:02;5.17;;;4.10;;
8889;SDS011;4481;43.406;24.454;2022-10-15T11:34:40;5.77;;;3.20;;
8889;SDS011;4481;43.406;24.454;2022-10-15T11:37:23;4.27;;;3.03;;
8889;SDS011;4481;43.406;24.454;2022-10-15T11:40:08;5.73;;;3.53;;
8889;SDS011;4481;43.406;24.454;2022-10-15T11:42:45;4.13;;;3.73;;
8889;SDS011;4481;43.406;24.454;2022-10-15T11:45:32;8.77;;;3.70;;
8889;SDS011;4481;43.406;24.454;2022-10-15T11:48:08;4.97;;;3.70;;
8889;SDS011;4481;43.406;24.454;2022-10-15T11:50:42;4.97;;;3.80;;
8889;SDS011;4481;43.406;24.454;2022-10-15T11:53:23;4.53;;;3.63;;
8889;SDS011;4481;43.406;24.454;2022-10-15T11:56:09;3.90;;;3.13;;
8889;SDS011;4481;43.406;24.454;2022-10-15T11:58:40;5.93;;;3.33;;
8889;SDS011;4481;43.406;24.454;2022-10-15T12:01:10;4.83;;;3.83;;
8889;SDS011;4481;43.406;24.454;2022-10-15T12:03:45;7.13;;;3.57;;
8889;SDS011;4481;43.406;24.454;2022-10-15T12:06:17;6.37;;;3.83;;
8889;SDS011;4481;43.406;24.454;2022-10-15T12:08:45;6.13;;;4.00;;
8889;SDS011;4481;43.406;24.454;2022-10-15T12:11:18;4.87;;;4.33;;
8889;SDS011;4481;43.406;24.454;2022-10-15T12:13:49;6.97;;;3.90;;
8889;SDS011;4481;43.406;24.454;2022-10-15T12:16:24;10.77;;;3.40;;
8889;SDS011;4481;43.406;24.454;2022-10-15T12:18:56;5.13;;;3.33;;
8889;SDS011;4481;43.406;24.454;2022-10-15T12:21:34;3.80;;;3.40;;
8889;SDS011;4481;43.406;24.454;2022-10-15T12:24:02;5.73;;;3.97;;
8889;SDS011;4481;43.406;24.454;2022-10-15T12:26:35;4.97;;;3.53;;
8889;SDS011;4481;43.406;24.454;2022-10-15T12:29:02;4.63;;;3.47;;
8889;SDS011;4481;43.406;24.454;2022-10-15T12:31:46;4.43;;;3.77;;
8889;SDS011;4481;43.406;24.454;2022-10-15T12:34:24;4.97;;;3.73;;
8889;SDS011;4481;43.406;24.454;2022-10-15T12:36:59;4.60;;;3.80;;
8889;SDS011;4481;43.406;24.454;2022-10-15T12:39:27;4.67;;;4.00;;
8889;SDS011;4481;43.406;24.454;2022-10-15T12:41:55;5.70;;;4.37;;
8889;SDS011;4481;43.406;24.454;2022-10-15T12:44:22;6.73;;;4.60;;
8889;SDS011;4481;43.406;24.454;2022-10-15T12:46:50;6.23;;;4.17;;
8889;SDS011;4481;43.406;24.454;2022-10-15T12:55:18;5.27;;;4.23;;
8889;SDS011;4481;43.406;24.454;2022-10-15T12:57:52;8.17;;;4.20;;
8889;SDS011;4481;43.406;24.454;2022-10-15T13:00:29;5.57;;;4.13;;
8889;SDS011;4481;43.406;24.454;2022-10-15T13:06:24;4.07;;;3.73;;
8889;SDS011;4481;43.406;24.454;2022-10-15T13:08:58;7.43;;;4.07;;
8889;SDS011;4481;43.406;24.454;2022-10-15T13:11:30;5.50;;;4.20;;
8889;SDS011;4481;43.406;24.454;2022-10-15T13:14:00;10.43;;;4.43;;
8889;SDS011;4481;43.406;24.454;2022-10-15T13:16:35;6.77;;;4.10;;
8889;SDS011;4481;43.406;24.454;2022-10-15T13:19:03;7.47;;;4.33;;
8889;SDS011;4481;43.406;24.454;2022-10-15T13:24:21;8.10;;;4.43;;
8889;SDS011;4481;43.406;24.454;2022-10-15T13:26:49;7.00;;;4.70;;
8889;SDS011;4481;43.406;24.454;2022-10-15T13:29:17;5.67;;;4.40;;
8889;SDS011;4481;43.406;24.454;2022-10-15T13:31:45;4.27;;;3.87;;
8889;SDS011;4481;43.406;24.454;2022-10-15T13:34:15;7.83;;;4.60;;
8889;SDS011;4481;43.406;24.454;2022-10-15T13:36:49;6.73;;;4.60;;
8889;SDS011;4481;43.406;24.454;2022-10-15T13:39:20;6.90;;;4.40;;
8889;SDS011;4481;43.406;24.454;2022-10-15T13:41:51;4.60;;;4.20;;
8889;SDS011;4481;43.406;24.454;2022-10-15T13:44:28;4.70;;;3.83;;
8889;SDS011;4481;43.406;24.454;2022-10-15T13:46:54;4.93;;;3.30;;
8889;SDS011;4481;43.406;24.454;2022-10-15T13:49:20;6.60;;;4.13;;
8889;SDS011;4481;43.406;24.454;2022-10-15T13:51:48;6.47;;;4.10;;
8889;SDS011;4481;43.406;24.454;2022-10-15T13:54:16;6.10;;;4.43;;
8889;SDS011;4481;43.406;24.454;2022-10-15T13:56:48;4.73;;;4.07;;
8889;SDS011;4481;43.406;24.454;2022-10-15T13:59:17;5.57;;;4.70;;
8889;SDS011;4481;43.406;24.454;2022-10-15T14:01:46;4.73;;;3.93;;
8889;SDS011;4481;43.406;24.454;2022-10-15T14:04:14;4.87;;;4.20;;
8889;SDS011;4481;43.406;24.454;2022-10-15T14:06:41;5.60;;;4.13;;
8889;SDS011;4481;43.406;24.454;2022-10-15T14:09:18;4.60;;;4.20;;
8889;SDS011;4481;43.406;24.454;2022-10-15T14:11:47;6.60;;;4.43;;
8889;SDS011;4481;43.406;24.454;2022-10-15T14:14:25;5.20;;;4.40;;
8889;SDS011;4481;43.406;24.454;2022-10-15T14:16:53;5.03;;;3.80;;
8889;SDS011;4481;43.406;24.454;2022-10-15T14:19:21;5.77;;;4.03;;
8889;SDS011;4481;43.406;24.454;2022-10-15T14:21:54;6.03;;;4.00;;
8889;SDS011;4481;43.406;24.454;2022-10-15T14:24:21;10.93;;;4.63;;
8889;SDS011;4481;43.406;24.454;2022-10-15T14:26:49;4.83;;;4.17;;
8889;SDS011;4481;43.406;24.454;2022-10-15T14:29:16;7.90;;;4.07;;
8889;SDS011;4481;43.406;24.454;2022-10-15T14:31:47;6.33;;;3.67;;
8889;SDS011;4481;43.406;24.454;2022-10-15T14:34:27;8.23;;;4.20;;
8889;SDS011;4481;43.406;24.454;2022-10-15T14:36:56;5.93;;;3.90;;
8889;SDS011;4481;43.406;24.454;2022-10-15T14:39:26;4.73;;;4.17;;
8889;SDS011;4481;43.406;24.454;2022-10-15T14:41:58;4.93;;;3.80;;
8889;SDS011;4481;43.406;24.454;2022-10-15T14:44:25;4.87;;;4.37;;
8889;SDS011;4481;43.406;24.454;2022-10-15T14:47:04;5.47;;;4.47;;
8889;SDS011;4481;43.406;24.454;2022-10-15T14:49:32;7.17;;;4.40;;
8889;SDS011;4481;43.406;24.454;2022-10-15T14:52:00;4.50;;;4.10;;
8889;SDS011;4481;43.406;24.454;2022-10-15T14:54:33;6.30;;;4.33;;
8889;SDS011;4481;43.406;24.454;2022-10-15T14:57:01;5.00;;;4.07;;
8889;SDS011;4481;43.406;24.454;2022-10-15T14:59:29;5.27;;;4.40;;
8889;SDS011;4481;43.406;24.454;2022-10-15T15:01:58;5.90;;;3.73;;
8889;SDS011;4481;43.406;24.454;2022-10-15T15:04:37;5.13;;;4.50;;
8889;SDS011;4481;43.406;24.454;2022-10-15T15:07:14;6.90;;;3.90;;
8889;SDS011;4481;43.406;24.454;2022-10-15T15:09:42;10.27;;;4.80;;
8889;SDS011;4481;43.406;24.454;2022-10-15T15:12:15;10.53;;;4.93;;
8889;SDS011;4481;43.406;24.454;2022-10-15T15:14:44;7.47;;;4.73;;
8889;SDS011;4481;43.406;24.454;2022-10-15T15:17:13;7.20;;;4.57;;
8889;SDS011;4481;43.406;24.454;2022-10-15T15:19:44;6.67;;;5.07;;
8889;SDS011;4481;43.406;24.454;2022-10-15T15:22:10;6.43;;;5.00;;
8889;SDS011;4481;43.406;24.454;2022-10-15T15:24:40;5.67;;;5.07;;
8889;SDS011;4481;43.406;24.454;2022-10-15T15:27:07;7.67;;;5.17;;
8889;SDS011;4481;43.406;24.454;2022-10-15T15:29:48;7.27;;;5.43;;
8889;SDS011;4481;43.406;24.454;2022-10-15T15:32:15;7.80;;;5.60;;
8889;SDS011;4481;43.406;24.454;2022-10-15T15:34:41;9.37;;;5.47;;